Terminal Aerodrome Forecast
Issued by NWS

Home | Current Version | Previous Version | Text Only | Print | Product List | Glossary On
Versions: 1 2 3 4 5 6 7 8 9 10 11 12 13
000
FTPA31 PHFO 191744
TAFHLI
TAF
PHLI 191744Z 1918/2018 09017KT P6SM VCSH SCT025 BKN040
      TEMPO 1919/1923 6SM -SHRA BKN025
     FM200400 08012KT P6SM SCT030 BKN045
     FM201000 06009KT P6SM VCSH SCT025 BKN040=

USA.gov is the U.S. government's official web portal to all federal, state and local government web resources and services.